Terminal Aerodrome Forecast
Issued by NWS Wilmington, OH

Current Version | Previous Version | Graphics & Text | Print | Product List | Glossary On
Versions: 1 2 3 4 5 6 7 8 9 10 11 12 13 14 15 16 17 18 19 20
000
FTUS41 KILN 260500
TAFDAY
TAF
KDAY 260539Z 2606/2706 01014G23KT 2SM -SN OVC018
     FM260630 36014G23KT 3SM -SN OVC018
     FM260900 36014G23KT P6SM OVC022
     FM261200 36012G19KT P6SM OVC015
     FM261600 33010KT P6SM SCT015 BKN200
     FM262300 25005KT P6SM FEW015 SCT080=

USA.gov is the U.S. government's official web portal to all federal, state and local government web resources and services.